Herschel Island, Yukon

Past 24 Hour Conditions

Date / Time
(PDT)
Conditions Temp
(°F)
Humidity
(%)
Dew Point
(°F)
Wind
(mph)
Pressure
(inches)
Vis
(mi)
Wind Chill
30 October 2014
22:00 N/A 21 83 17 NNW 13 29.9 N/A 8
21:00 N/A 21 85 17 NW 9 29.9 N/A 11
20:00 N/A 20   85 16 NW 7 29.9 N/A 11
19:00 N/A 21 83 17 NNW 10 29.9 N/A 10
18:00 N/A 21 86 17 NNW 3 29.9 N/A 15
17:00 N/A 21 84 17 NNW 6 29.9 N/A 13
16:00 N/A 21 78 15 N 6 29.9 N/A 13
15:00 N/A 21 74 14 NNW 8 29.9 N/A 12
14:00 N/A 21 72 14 N 10 29.9 N/A 11
13:00 N/A 21 73 14 N 11 29.9 N/A 10
12:00 N/A 21 75 14 NNW 8 29.9 N/A 11
11:00 N/A 21 76 14 NNW 8 29.9 N/A 11
10:00 N/A 20   78 14 NNW 6 29.9 N/A 12
9:00 N/A 20   80 15 NNW 5 29.9 N/A 13
8:00 N/A 20   82 15 N 6 29.9 N/A 12
7:00 N/A 20   84 16 N 6 29.9 N/A 12
6:00 N/A 20   88 17 N 7 29.9 N/A 11
5:00 N/A 20   87 17 N 5 29.9 N/A 14
4:00 N/A 21 82 16 N 5 29.9 N/A 15
3:00 N/A 21 80 16 NNE 6 29.9 N/A 14
2:00 N/A 22 81 17 NNE 8 29.9 N/A 12
1:00 N/A 22 79 16 NNE 7 29.9 N/A 14
00:00 N/A 22 76 16 N 7 29.9 N/A 14
29 October 2014
23:00 N/A 22 78 17 N 7 29.9 N/A 14
22:00 N/A 23   76 16 N 8 29.9 N/A 13
N/A Not available
↑ Highest temperature
↓ Lowest temperature
* Value not significant.

If you require additional historical weather information, please visit Climate Data Online.

Date modified: